Time;durP1;ratioP1;P1;durP2;ratioP2;P2;SDS_P1;SDS_P2;PMS_P1;PMS_P2;Temp;Humidity;BMP_temperature;BMP_pressure;BME280_temperature;BME280_humidity;BME280_pressure;Samples;Min_cycle;Max_cycle;Signal;HPM_P1;HPM_P2
2022/06/09 00:01:30;;;;;;;3.40;1.27;;;;;;;16.10;92.26;97590.28;5014544;28;20169;-58
2022/06/09 00:04:07;;;;;;;3.80;1.40;;;;;;;16.10;91.11;97574.53;5017941;28;20112;-60
2022/06/09 00:06:39;;;;;;;4.55;1.40;;;;;;;16.09;90.42;97581.56;5017285;28;20108;-58
2022/06/09 00:09:05;;;;;;;3.45;1.50;;;;;;;16.16;90.02;97599.13;4990622;28;20034;-58
2022/06/09 00:11:32;;;;;;;4.15;1.77;;;;;;;16.10;91.01;97598.94;5017475;28;20026;-58
2022/06/09 00:13:57;;;;;;;4.82;1.60;;;;;;;16.13;91.76;97600.31;5014691;28;20473;-57
2022/06/09 00:16:23;;;;;;;4.45;1.70;;;;;;;15.65;92.14;97528.00;5019054;28;20056;-59
2022/06/09 00:18:48;;;;;;;4.78;1.67;;;;;;;16.02;92.52;97596.50;5013552;28;20112;-61
2022/06/09 00:21:13;;;;;;;3.58;1.30;;;;;;;15.90;92.60;97571.94;5016242;28;20037;-58
2022/06/09 00:23:39;;;;;;;4.78;1.50;;;;;;;15.84;92.40;97563.06;5016172;28;20113;-58
2022/06/09 00:26:04;;;;;;;4.15;1.52;;;;;;;16.02;92.52;97587.84;5009531;28;20041;-60
2022/06/09 00:28:30;;;;;;;5.25;1.60;;;;;;;15.83;92.57;97558.84;5015206;28;20030;-59
2022/06/09 00:30:55;;;;;;;4.22;1.70;;;;;;;15.94;93.07;97589.66;5015889;28;20037;-59
2022/06/09 00:33:21;;;;;;;4.38;1.50;;;;;;;16.00;92.12;97590.66;5020359;28;20036;-60
2022/06/09 00:35:47;;;;;;;4.35;1.30;;;;;;;15.94;91.75;97597.53;4999388;28;20347;-58
2022/06/09 00:38:12;;;;;;;5.38;1.40;;;;;;;15.89;91.92;97594.72;5015616;28;20052;-58
2022/06/09 00:40:38;;;;;;;4.55;1.30;;;;;;;15.88;92.08;97581.81;5020675;28;20083;-59
2022/06/09 00:43:06;;;;;;;3.90;1.60;;;;;;;15.87;92.10;97581.00;5018543;28;20140;-58
2022/06/09 00:45:37;;;;;;;3.50;1.40;;;;;;;16.00;90.84;97579.38;5018202;28;20041;-59
2022/06/09 00:48:02;;;;;;;3.47;1.50;;;;;;;16.04;89.32;97584.00;5011506;28;20021;-58
2022/06/09 00:50:29;;;;;;;3.53;1.30;;;;;;;16.00;89.53;97567.06;5020254;28;20052;-59
2022/06/09 00:52:58;;;;;;;3.38;1.40;;;;;;;16.05;88.60;97576.97;5008893;28;20490;-59
2022/06/09 00:55:25;;;;;;;;;;;;;;;16.06;89.43;97570.69;4997023;28;20058;-59
2022/06/09 00:57:55;;;;;;;3.45;1.40;;;;;;;15.97;90.03;97571.91;5020288;28;20759;-59
2022/06/09 01:00:24;;;;;;;3.30;1.33;;;;;;;15.97;89.45;97575.34;4995812;28;20029;-59
2022/06/09 01:02:51;;;;;;;4.88;1.50;;;;;;;15.91;89.29;97578.78;5021268;28;20052;-58
2022/06/09 01:05:19;;;;;;;3.88;1.50;;;;;;;15.89;89.16;97583.44;5016194;28;20034;-59
2022/06/09 01:07:51;;;;;;;3.75;1.40;;;;;;;15.86;89.79;97573.34;5006294;28;20138;-59
2022/06/09 01:10:16;;;;;;;5.95;1.40;;;;;;;15.67;89.73;97540.88;5008542;28;20102;-58
2022/06/09 01:12:44;;;;;;;4.90;1.50;;;;;;;15.88;90.67;97580.00;4997906;28;20041;-59
2022/06/09 01:15:14;;;;;;;3.70;1.60;;;;;;;15.85;90.08;97575.16;5020299;28;20038;-58
2022/06/09 01:18:17;;;;;;;3.05;1.27;;;;;;;15.89;90.52;97567.69;5019868;28;20033;-58
2022/06/09 01:20:54;;;;;;;7.32;1.80;;;;;;;15.90;92.35;97562.25;4980709;28;20025;-59
2022/06/09 01:23:28;;;;;;;3.50;1.40;;;;;;;15.75;92.65;97538.06;5016073;28;20041;-58
2022/06/09 01:26:15;;;;;;;5.38;1.58;;;;;;;16.03;91.18;97555.38;5017082;28;20519;-58
2022/06/09 01:28:52;;;;;;;4.60;1.45;;;;;;;15.88;92.05;97559.03;5016353;28;20052;-60
2022/06/09 01:31:39;;;;;;;4.43;1.52;;;;;;;15.63;91.48;97534.44;5030882;28;20072;-58
2022/06/09 01:34:14;;;;;;;3.42;1.42;;;;;;;15.75;91.09;97569.53;5014089;28;20068;-59
2022/06/09 01:36:48;;;;;;;6.38;1.60;;;;;;;15.74;90.17;97570.53;5021357;28;20033;-58
2022/06/09 01:39:14;;;;;;;3.00;1.20;;;;;;;15.69;90.50;97565.06;5020478;28;20087;-61
2022/06/09 01:41:47;;;;;;;3.60;1.33;;;;;;;15.55;90.12;97541.50;5012268;28;20025;-59
2022/06/09 01:44:13;;;;;;;3.58;1.30;;;;;;;15.76;90.52;97556.22;5005760;28;20095;-59
2022/06/09 01:46:39;;;;;;;4.93;1.92;;;;;;;15.68;91.41;97561.66;5014023;28;22106;-59
2022/06/09 01:49:18;;;;;;;3.20;1.40;;;;;;;15.75;90.16;97572.97;5013807;28;20033;-58
2022/06/09 01:51:45;;;;;;;3.00;1.30;;;;;;;15.65;91.30;97569.13;4999262;28;20029;-61
2022/06/09 01:54:19;;;;;;;3.50;1.50;;;;;;;15.57;91.60;97565.69;5018972;28;20044;-61
2022/06/09 01:57:00;;;;;;;3.45;1.35;;;;;;;15.56;91.48;97558.81;5015089;28;20021;-59
2022/06/09 01:59:33;;;;;;;3.20;1.33;;;;;;;15.51;91.46;97553.38;5016463;28;20033;-58
2022/06/09 02:02:06;;;;;;;4.75;1.50;;;;;;;15.38;91.42;97535.06;5024699;28;20029;-59
2022/06/09 02:04:38;;;;;;;4.05;1.55;;;;;;;15.49;92.29;97563.25;5011999;28;20052;-58
2022/06/09 02:07:06;;;;;;;3.00;1.30;;;;;;;15.57;92.00;97568.31;5019205;28;20124;-59
2022/06/09 02:09:32;;;;;;;3.15;1.20;;;;;;;15.63;90.98;97564.06;5016902;28;20057;-58
2022/06/09 02:12:03;;;;;;;4.20;1.48;;;;;;;15.55;91.21;97572.94;5015456;28;20710;-59
2022/06/09 02:14:29;;;;;;;3.20;1.27;;;;;;;15.55;90.81;97575.56;5016351;28;20535;-58
2022/06/09 02:16:55;;;;;;;3.53;1.33;;;;;;;15.60;91.03;97590.66;5024828;28;20391;-58
2022/06/09 02:19:22;;;;;;;2.95;1.08;;;;;;;15.57;89.96;97594.50;5019835;28;20037;-58
2022/06/09 02:21:47;;;;;;;4.63;1.33;;;;;;;15.35;89.72;97552.00;5015748;28;20035;-58
2022/06/09 02:24:13;;;;;;;2.97;0.95;;;;;;;15.64;89.71;97598.94;5020958;28;20504;-58
2022/06/09 02:26:38;;;;;;;3.03;1.30;;;;;;;15.57;90.64;97599.75;5021798;28;20161;-59
2022/06/09 02:29:03;;;;;;;4.20;1.35;;;;;;;15.57;90.93;97591.09;5022237;28;20053;-59
2022/06/09 02:31:29;;;;;;;3.95;1.23;;;;;;;15.62;90.82;97600.94;5004188;28;20508;-59
2022/06/09 02:33:55;;;;;;;3.35;1.20;;;;;;;15.56;90.40;97594.69;5020026;28;20037;-58
2022/06/09 02:36:20;;;;;;;4.03;1.20;;;;;;;15.53;91.03;97588.06;5016618;28;20033;-59
2022/06/09 02:38:46;;;;;;;3.50;1.30;;;;;;;15.47;91.32;97593.28;5021144;28;20927;-57
2022/06/09 02:41:12;;;;;;;3.60;1.30;;;;;;;15.40;91.24;97576.75;5019701;28;20033;-58
2022/06/09 02:43:37;;;;;;;4.00;1.30;;;;;;;15.47;90.94;97577.56;5020827;28;20136;-58
2022/06/09 02:46:04;;;;;;;3.88;1.50;;;;;;;15.48;91.57;97584.41;5017101;28;20029;-57
2022/06/09 02:48:30;;;;;;;3.08;1.08;;;;;;;15.46;90.88;97589.03;5017986;28;20022;-58
2022/06/09 02:50:55;;;;;;;4.10;1.38;;;;;;;15.31;90.39;97561.22;5021825;28;20103;-58
2022/06/09 02:53:22;;;;;;;3.17;1.20;;;;;;;15.41;89.75;97587.03;5019250;28;21777;-60
2022/06/09 02:55:48;;;;;;;3.92;1.40;;;;;;;15.31;89.97;97592.66;5017849;28;20033;-60
2022/06/09 02:58:13;;;;;;;4.22;1.30;;;;;;;15.39;89.06;97594.31;5017838;28;20033;-58
2022/06/09 03:00:41;;;;;;;4.18;1.35;;;;;;;15.42;88.49;97599.13;5010256;28;20467;-59
2022/06/09 03:03:10;;;;;;;3.50;1.20;;;;;;;15.38;87.94;97579.56;5018895;28;20052;-57
2022/06/09 03:05:36;;;;;;;3.22;1.20;;;;;;;15.48;88.12;97590.47;5012407;28;20025;-59
2022/06/09 03:08:03;;;;;;;3.95;1.15;;;;;;;15.42;88.51;97588.63;5020727;28;20075;-60
2022/06/09 03:10:28;;;;;;;7.75;3.03;;;;;;;15.51;87.47;97592.66;5020683;28;20107;-59
2022/06/09 03:12:53;;;;;;;5.10;1.35;;;;;;;15.53;87.42;97595.09;5018027;28;20037;-59
2022/06/09 03:15:21;;;;;;;4.20;1.30;;;;;;;15.53;87.81;97597.72;5015583;28;20112;-59
2022/06/09 03:17:46;;;;;;;2.38;0.95;;;;;;;15.28;88.22;97561.66;5021006;28;20136;-59
2022/06/09 03:20:33;;;;;;;3.13;1.20;;;;;;;15.49;88.65;97597.31;5017245;28;20507;-59
2022/06/09 03:22:59;;;;;;;4.22;1.10;;;;;;;15.45;89.49;97598.72;5014356;28;20527;-58
2022/06/09 03:25:24;;;;;;;3.60;1.42;;;;;;;15.19;89.92;97568.88;5016857;28;20040;-59
2022/06/09 03:27:50;;;;;;;3.95;1.20;;;;;;;15.37;90.27;97598.94;5020801;28;20044;-60
2022/06/09 03:30:16;;;;;;;3.03;1.10;;;;;;;15.37;89.83;97607.59;5005989;28;20053;-59
2022/06/09 03:32:42;;;;;;;3.45;1.30;;;;;;;15.29;89.71;97601.72;5017526;28;20029;-59
2022/06/09 03:35:08;;;;;;;5.47;1.20;;;;;;;15.31;88.65;97610.19;5019110;28;20044;-58
2022/06/09 03:37:34;;;;;;;3.30;1.20;;;;;;;15.32;89.34;97603.97;5023351;28;20030;-59
2022/06/09 03:39:59;;;;;;;3.15;1.30;;;;;;;15.32;90.49;97611.81;5013708;28;20036;-58
2022/06/09 03:42:25;;;;;;;4.13;1.52;;;;;;;15.36;90.90;97610.41;5019746;28;20461;-58
2022/06/09 03:51:34;;;;;;;2.28;0.98;;;;;;;15.30;90.39;97619.88;5017957;28;20056;-58
2022/06/09 03:54:00;;;;;;;3.60;1.40;;;;;;;15.28;91.12;97613.22;5016131;28;20021;-60
2022/06/09 03:56:25;;;;;;;3.20;1.20;;;;;;;15.24;90.57;97601.50;5020846;28;20061;-59
2022/06/09 03:58:51;;;;;;;3.25;1.13;;;;;;;15.12;90.49;97577.75;5018667;28;20026;-60
2022/06/09 04:01:19;;;;;;;4.47;1.50;;;;;;;15.35;91.05;97606.16;4993170;28;20029;-59
2022/06/09 04:03:45;;;;;;;3.88;1.35;;;;;;;15.21;91.41;97583.59;5015155;28;20522;-58
2022/06/09 04:06:17;;;;;;;2.95;1.13;;;;;;;15.17;92.08;97593.66;5015815;28;20048;-57
2022/06/09 04:08:42;;;;;;;3.28;1.17;;;;;;;15.06;91.16;97599.47;5014974;28;20371;-57
2022/06/09 04:11:09;;;;;;;3.78;1.30;;;;;;;15.29;91.51;97623.47;5018504;28;20045;-59
2022/06/09 04:13:36;;;;;;;3.35;1.42;;;;;;;15.28;90.69;97626.31;5019275;28;20488;-59
2022/06/09 04:16:04;;;;;;;3.30;1.30;;;;;;;15.04;90.12;97585.75;4994029;28;20100;-60
2022/06/09 04:18:29;;;;;;;4.35;1.20;;;;;;;15.28;89.61;97621.09;5004488;28;20125;-61
2022/06/09 04:20:54;;;;;;;5.95;1.10;;;;;;;15.39;88.32;97625.72;5015363;28;20029;-58
2022/06/09 04:23:20;;;;;;;2.85;1.02;;;;;;;15.40;88.43;97631.75;5016915;28;20041;-58
2022/06/09 04:25:45;;;;;;;3.15;1.10;;;;;;;15.42;86.34;97625.31;5016451;28;20120;-59
2022/06/09 04:28:10;;;;;;;3.10;1.10;;;;;;;15.48;86.13;97628.94;5013171;28;20033;-60
2022/06/09 04:30:36;;;;;;;3.88;1.25;;;;;;;15.25;87.64;97603.13;5017005;28;20036;-59
2022/06/09 04:33:01;;;;;;;3.40;1.30;;;;;;;15.44;88.64;97633.81;5014358;28;20456;-60
2022/06/09 04:35:27;;;;;;;3.85;1.08;;;;;;;15.28;88.49;97608.00;5008762;28;20029;-58
2022/06/09 04:38:01;;;;;;;3.80;1.35;;;;;;;15.48;89.05;97640.25;5019576;28;20518;-58
2022/06/09 04:40:30;;;;;;;2.78;1.00;;;;;;;15.54;87.67;97652.53;5016101;28;20524;-59
2022/06/09 04:42:55;;;;;;;4.00;1.10;;;;;;;15.39;87.67;97649.31;5014848;28;20025;-58
2022/06/09 04:45:20;;;;;;;4.50;1.95;;;;;;;15.42;87.77;97643.66;5013274;28;20037;-58
2022/06/09 04:47:46;;;;;;;5.93;1.23;;;;;;;15.45;88.37;97640.63;5020689;28;20425;-59
2022/06/09 04:50:12;;;;;;;3.83;1.00;;;;;;;15.53;87.92;97643.09;5019900;28;20028;-61
2022/06/09 04:52:38;;;;;;;2.58;1.00;;;;;;;15.64;87.98;97649.50;5017264;28;20464;-58
2022/06/09 04:55:04;;;;;;;3.33;1.10;;;;;;;15.49;85.68;97652.31;5019926;28;20091;-58
2022/06/09 04:57:30;;;;;;;6.45;1.20;;;;;;;15.45;84.74;97652.94;5021367;28;20461;-58
2022/06/09 04:59:55;;;;;;;3.65;1.10;;;;;;;15.52;84.08;97654.56;5013673;28;20041;-59
2022/06/09 05:02:20;;;;;;;2.28;0.95;;;;;;;15.59;84.56;97654.56;5019203;28;20032;-60
2022/06/09 05:04:46;;;;;;;4.18;1.10;;;;;;;15.56;85.51;97663.63;4996408;28;20041;-59
2022/06/09 05:07:11;;;;;;;3.50;1.00;;;;;;;15.64;85.21;97667.84;5015983;28;20030;-58
2022/06/09 05:09:36;;;;;;;4.78;1.00;;;;;;;15.39;86.57;97636.22;5003527;28;20141;-59
2022/06/09 05:12:02;;;;;;;2.90;0.77;;;;;;;15.56;85.20;97662.81;5013372;28;20076;-59
2022/06/09 05:14:28;;;;;;;2.38;0.90;;;;;;;15.63;85.61;97675.94;5014375;28;20069;-58
2022/06/09 05:16:53;;;;;;;6.40;1.25;;;;;;;15.48;86.30;97681.34;4952941;28;20041;-58
2022/06/09 05:19:18;;;;;;;3.08;0.90;;;;;;;15.51;86.76;97684.38;5016517;28;20033;-60
2022/06/09 05:21:44;;;;;;;3.20;0.88;;;;;;;15.47;85.46;97684.97;5014965;28;20028;-58
2022/06/09 05:24:11;;;;;;;2.97;1.10;;;;;;;15.52;85.19;97682.56;5010180;28;20040;-59
2022/06/09 05:26:37;;;;;;;4.18;1.00;;;;;;;15.52;85.70;97669.47;4999433;28;20025;-59
2022/06/09 05:29:03;;;;;;;3.05;1.00;;;;;;;15.32;84.74;97640.63;4997160;28;20425;-60
2022/06/09 05:31:28;;;;;;;3.00;1.02;;;;;;;15.55;84.79;97674.28;5033637;28;20038;-58
2022/06/09 05:33:54;;;;;;;4.75;0.98;;;;;;;15.65;83.82;97676.53;5013481;28;20033;-58
2022/06/09 05:36:19;;;;;;;3.70;0.80;;;;;;;15.61;82.44;97676.13;5022003;28;20029;-58
2022/06/09 05:44:52;;;;;;;6.38;0.93;;;;;;;15.62;81.92;97663.84;5023697;28;20148;-60
2022/06/09 05:47:20;;;;;;;4.30;1.00;;;;;;;15.49;81.49;97647.09;5019379;28;20105;-58
2022/06/09 05:49:50;;;;;;;3.00;0.95;;;;;;;15.67;81.85;97659.59;5012325;28;20496;-58
2022/06/09 05:52:17;;;;;;;3.80;0.80;;;;;;;15.74;81.52;97667.50;5003521;28;20139;-58
2022/06/09 05:54:43;;;;;;;1.95;0.55;;;;;;;15.85;76.57;97682.63;5002789;28;20038;-58
2022/06/09 05:57:08;;;;;;;4.40;0.70;;;;;;;16.03;77.50;97678.63;5015653;28;20029;-60
2022/06/09 05:59:34;;;;;;;3.95;1.05;;;;;;;16.06;77.70;97676.41;5007741;28;20029;-63
2022/06/09 06:01:59;;;;;;;4.38;0.80;;;;;;;16.09;76.37;97690.91;5005896;28;20027;-60
2022/06/09 06:04:24;;;;;;;2.63;0.95;;;;;;;16.01;74.51;97675.38;5011918;28;20526;-60
2022/06/09 06:06:50;;;;;;;2.03;0.65;;;;;;;16.20;74.70;97681.63;5014260;28;20025;-59
2022/06/09 06:09:18;;;;;;;2.72;0.80;;;;;;;16.09;75.73;97681.22;5020089;28;20064;-59
2022/06/09 06:11:45;;;;;;;3.75;0.90;;;;;;;16.21;79.54;97691.91;5013390;28;20124;-60
2022/06/09 06:14:11;;;;;;;3.70;1.00;;;;;;;16.05;81.91;97682.63;5017047;28;20610;-60
2022/06/09 06:16:37;;;;;;;3.80;0.95;;;;;;;16.08;82.65;97692.72;5034599;28;20056;-57
2022/06/09 06:19:04;;;;;;;3.17;1.23;;;;;;;16.06;82.23;97688.69;5017127;28;20413;-60
2022/06/09 06:21:30;;;;;;;2.95;0.88;;;;;;;16.01;81.82;97688.47;5020758;28;20025;-58
2022/06/09 06:23:55;;;;;;;2.88;0.80;;;;;;;16.07;79.52;97685.06;5013493;28;20037;-60
2022/06/09 06:26:21;;;;;;;2.05;0.60;;;;;;;16.10;78.61;97692.53;5020333;28;20380;-59
2022/06/09 06:28:46;;;;;;;2.17;0.70;;;;;;;16.08;78.86;97697.16;5014606;28;20111;-58
2022/06/09 06:31:12;;;;;;;3.72;1.00;;;;;;;15.91;79.04;97660.03;5018375;28;20151;-59
2022/06/09 06:33:37;;;;;;;2.10;0.70;;;;;;;16.03;77.84;97692.53;5004332;28;20025;-61
2022/06/09 06:36:03;;;;;;;3.20;0.75;;;;;;;16.07;77.57;97682.44;5012245;28;20065;-61
2022/06/09 06:38:28;;;;;;;3.40;1.10;;;;;;;16.10;78.03;97682.03;5012641;28;20488;-61
2022/06/09 06:40:54;;;;;;;2.85;0.90;;;;;;;16.06;78.48;97680.81;5025133;28;20033;-58
2022/06/09 06:43:21;;;;;;;3.35;0.95;;;;;;;16.05;79.02;97668.72;5016990;28;20666;-58
2022/06/09 06:45:46;;;;;;;2.60;0.60;;;;;;;16.08;78.46;97671.75;5016388;28;20075;-58
2022/06/09 06:48:11;;;;;;;3.30;1.00;;;;;;;16.09;78.28;97685.66;5019796;28;20029;-59
2022/06/09 06:50:37;;;;;;;2.45;0.77;;;;;;;16.05;78.83;97673.97;5016943;28;20037;-60
2022/06/09 06:53:02;;;;;;;2.38;0.80;;;;;;;15.96;78.47;97649.78;5009912;28;20033;-58
2022/06/09 06:55:29;;;;;;;3.95;1.15;;;;;;;15.89;79.09;97652.38;5014959;28;20033;-58
2022/06/09 06:57:54;;;;;;;2.25;0.80;;;;;;;16.15;78.33;97676.97;5016298;28;20049;-61
2022/06/09 07:00:22;;;;;;;4.55;0.88;;;;;;;16.12;68.90;97690.50;5018178;28;20060;-58
2022/06/09 07:02:48;;;;;;;3.38;0.70;;;;;;;16.47;63.07;97687.63;5018164;28;20018;-58
2022/06/09 07:05:14;;;;;;;1.55;0.50;;;;;;;17.05;56.69;97685.06;5020432;28;20022;-59
2022/06/09 07:07:40;;;;;;;2.72;0.50;;;;;;;17.44;53.88;97680.63;5015343;28;20040;-60
2022/06/09 07:10:07;;;;;;;1.17;0.45;;;;;;;17.88;51.57;97682.59;5011918;28;20037;-60
2022/06/09 07:12:32;;;;;;;2.67;0.60;;;;;;;17.89;51.11;97671.84;5021591;28;20116;-59
2022/06/09 07:14:58;;;;;;;1.80;0.60;;;;;;;17.91;50.95;97672.44;5006819;28;20121;-60
2022/06/09 07:17:24;;;;;;;1.35;0.40;;;;;;;17.88;50.84;97651.84;4994470;28;20057;-60
2022/06/09 07:19:50;;;;;;;1.27;0.43;;;;;;;18.23;50.97;97678.44;5018548;28;20061;-59
2022/06/09 07:22:15;;;;;;;2.60;0.50;;;;;;;18.33;52.26;97692.94;5005435;28;20069;-60
2022/06/09 07:24:43;;;;;;;2.22;0.60;;;;;;;18.34;54.13;97678.75;5023043;28;20084;-61
2022/06/09 07:27:08;;;;;;;2.28;0.50;;;;;;;18.24;53.81;97676.63;5009505;28;20116;-60
2022/06/09 07:29:34;;;;;;;3.25;0.70;;;;;;;18.22;53.23;97684.72;5022906;28;20234;-60
2022/06/09 07:32:00;;;;;;;1.00;0.47;;;;;;;18.48;52.71;97677.59;5018558;28;20123;-59
2022/06/09 07:34:26;;;;;;;1.83;0.60;;;;;;;18.46;53.28;97679.66;5025150;28;20068;-61
2022/06/09 07:36:51;;;;;;;3.67;1.17;;;;;;;18.43;51.70;97688.75;5017401;28;20120;-59
2022/06/09 07:39:16;;;;;;;3.90;1.08;;;;;;;18.23;52.20;97653.94;4993188;28;20030;-59
2022/06/09 07:41:42;;;;;;;5.55;2.13;;;;;;;19.18;48.57;97697.50;5025241;28;20113;-57
2022/06/09 07:44:08;;;;;;;5.72;1.50;;;;;;;19.68;48.71;97697.22;5018931;28;20029;-58
2022/06/09 07:46:34;;;;;;;3.75;1.08;;;;;;;20.00;48.20;97693.53;5023615;28;20033;-59
2022/06/09 07:49:01;;;;;;;4.20;0.85;;;;;;;20.23;45.83;97700.66;5017926;28;20083;-59
2022/06/09 07:51:28;;;;;;;2.55;0.70;;;;;;;20.31;46.29;97700.31;5016364;28;20060;-60
2022/06/09 07:53:53;;;;;;;2.55;0.63;;;;;;;20.61;46.08;97697.56;5020853;28;20021;-60
2022/06/09 07:56:19;;;;;;;4.00;1.40;;;;;;;20.63;43.88;97665.66;5000330;28;20041;-62
2022/06/09 07:58:45;;;;;;;6.88;2.92;;;;;;;21.15;42.60;97689.41;5017301;28;20668;-61
2022/06/09 08:01:11;;;;;;;5.60;2.60;;;;;;;21.52;40.88;97694.34;5016725;28;20564;-61
2022/06/09 08:03:39;;;;;;;10.88;5.60;;;;;;;21.92;39.99;97698.69;5003033;28;20052;-58
2022/06/09 08:06:04;;;;;;;8.65;4.38;;;;;;;22.11;36.65;97691.34;5016919;28;20045;-59
2022/06/09 08:08:30;;;;;;;4.97;1.88;;;;;;;22.12;37.30;97663.81;5023176;28;20030;-61
2022/06/09 08:10:55;;;;;;;4.93;1.80;;;;;;;22.45;37.94;97686.00;5014771;28;20029;-59
2022/06/09 08:13:21;;;;;;;4.88;1.95;;;;;;;22.73;37.76;97687.72;5012329;28;20571;-62
2022/06/09 08:15:46;;;;;;;3.60;1.30;;;;;;;22.65;39.03;97649.22;5012872;28;20136;-59
2022/06/09 08:18:11;;;;;;;3.80;0.90;;;;;;;23.12;40.66;97690.31;4992234;28;20018;-60
2022/06/09 08:20:39;;;;;;;4.03;0.70;;;;;;;23.14;36.09;97682.91;5019387;28;20037;-58
2022/06/09 08:23:11;;;;;;;3.10;0.55;;;;;;;23.28;33.51;97680.69;5010465;28;20077;-59
2022/06/09 08:25:38;;;;;;;2.80;0.55;;;;;;;23.60;35.46;97695.84;5017839;28;20142;-59
2022/06/09 08:28:05;;;;;;;0.38;0.20;;;;;;;23.44;33.58;97688.78;5013525;28;20034;-60
2022/06/09 08:30:31;;;;;;;0.10;0.10;;;;;;;23.44;36.11;97691.44;4990733;28;20347;-59
2022/06/09 08:32:57;;;;;;;0.45;0.10;;;;;;;23.47;33.46;97688.31;5007554;28;20476;-60
2022/06/09 08:35:24;;;;;;;0.65;0.15;;;;;;;23.67;33.63;97687.69;5010458;28;20037;-60
2022/06/09 08:37:51;;;;;;;0.10;0.10;;;;;;;23.86;30.72;97681.00;5008925;28;20026;-57
2022/06/09 08:40:21;;;;;;;0.93;0.13;;;;;;;24.11;32.99;97693.66;5008067;28;20055;-60
2022/06/09 08:43:00;;;;;;;1.08;0.30;;;;;;;24.01;33.47;97700.75;5008986;28;20040;-60
2022/06/09 08:45:33;;;;;;;;;;;;;;;24.32;32.64;97688.50;5008585;28;20025;-59
2022/06/09 08:48:00;;;;;;;1.15;0.40;;;;;;;24.22;30.96;97691.84;5014129;28;19999;-60
2022/06/09 08:50:31;;;;;;;1.42;0.50;;;;;;;24.13;29.51;97696.03;4993959;28;20076;-60
2022/06/09 08:53:09;;;;;;;1.10;0.30;;;;;;;24.65;32.34;97698.00;4965597;28;20067;-58
2022/06/09 08:55:51;;;;;;;1.38;0.38;;;;;;;24.40;31.05;97708.44;5013893;28;20064;-59
2022/06/09 08:58:36;;;;;;;0.60;0.20;;;;;;;24.21;26.85;97692.94;5012626;28;21432;-58
2022/06/09 09:01:09;;;;;;;0.38;0.20;;;;;;;24.56;26.45;97676.41;5010524;28;20044;-58
2022/06/09 09:03:40;;;;;;;1.52;0.20;;;;;;;24.66;30.42;97712.91;5008764;28;20037;-58
2022/06/09 09:06:20;;;;;;;1.45;0.43;;;;;;;24.65;31.39;97713.16;5012321;28;20048;-61
2022/06/09 09:08:46;;;;;;;1.80;0.50;;;;;;;24.76;29.06;97709.47;5021753;28;20107;-60
2022/06/09 09:11:30;;;;;;;2.70;0.40;;;;;;;24.62;26.62;97708.34;5015839;28;20025;-59
2022/06/09 09:14:01;;;;;;;1.02;0.20;;;;;;;24.46;29.41;97724.19;5014417;28;20021;-63
2022/06/09 09:16:52;;;;;;;0.32;0.10;;;;;;;24.71;29.52;97706.78;5016759;28;20033;-59
2022/06/09 09:19:58;;;;;;;0.73;0.22;;;;;;;24.81;27.46;97711.38;5018010;28;20021;-59
2022/06/09 09:22:30;;;;;;;0.73;0.10;;;;;;;24.88;29.40;97709.25;5017555;28;20025;-60
2022/06/09 09:25:15;;;;;;;0.98;0.20;;;;;;;24.46;27.01;97686.97;5018867;28;20025;-59
2022/06/09 09:27:48;;;;;;;2.40;0.35;;;;;;;24.95;26.91;97707.16;5012171;28;20041;-60
2022/06/09 09:30:17;;;;;;;1.83;0.20;;;;;;;25.06;27.45;97703.50;5017168;28;20044;-61
2022/06/09 09:32:49;;;;;;;0.70;0.20;;;;;;;25.07;27.29;97704.28;4987671;28;20030;-60
2022/06/09 09:35:22;;;;;;;0.90;0.20;;;;;;;25.14;25.78;97702.19;4953481;28;21246;-64
2022/06/09 09:38:19;;;;;;;1.48;0.17;;;;;;;25.09;26.31;97713.59;5012632;28;20776;-60
2022/06/09 09:40:48;;;;;;;1.27;0.15;;;;;;;24.83;26.97;97695.97;4999280;28;20427;-59
2022/06/09 09:43:24;;;;;;;0.38;0.10;;;;;;;24.75;27.35;97705.22;5012116;28;20029;-60
2022/06/09 09:46:37;;;;;;;1.85;0.30;;;;;;;24.78;26.15;97709.22;5027602;28;20017;-61
2022/06/09 09:49:15;;;;;;;0.40;0.10;;;;;;;24.56;29.31;97704.84;5016276;28;20036;-59
2022/06/09 09:51:42;;;;;;;0.80;0.25;;;;;;;24.62;29.18;97698.50;5010185;28;20307;-59
2022/06/09 09:54:19;;;;;;;1.77;0.30;;;;;;;24.66;28.91;97714.72;5017934;28;20035;-60
2022/06/09 09:56:44;;;;;;;1.15;0.30;;;;;;;24.30;28.59;97701.22;5018179;28;20033;-59
2022/06/09 09:59:23;;;;;;;1.08;0.20;;;;;;;24.02;31.09;97720.94;5019755;28;20040;-60
2022/06/09 10:10:22;;;;;;;0.60;0.15;;;;;;;23.49;29.35;97708.25;5016104;28;20071;-59
2022/06/09 10:12:48;;;;;;;1.40;0.38;;;;;;;23.53;28.75;97717.28;5016809;28;20494;-60
2022/06/09 10:15:19;;;;;;;1.63;0.20;;;;;;;23.37;28.41;97707.56;5017563;28;20030;-62
2022/06/09 10:18:05;;;;;;;1.27;0.30;;;;;;;23.27;27.11;97702.94;5005956;28;20022;-63
2022/06/09 10:20:38;;;;;;;1.33;0.52;;;;;;;23.04;30.79;97680.19;5008954;28;20026;-62
2022/06/09 10:23:07;;;;;;;1.33;0.40;;;;;;;23.35;31.82;97715.00;4994416;28;20026;-61
2022/06/09 10:26:09;;;;;;;0.75;0.20;;;;;;;23.27;29.40;97712.75;5010541;28;20298;-62
2022/06/09 10:28:46;;;;;;;1.33;0.38;;;;;;;23.13;29.55;97686.63;5009361;28;20487;-63
2022/06/09 10:31:32;;;;;;;0.63;0.28;;;;;;;23.17;29.52;97708.16;4986299;28;20022;-62
2022/06/09 10:34:10;;;;;;;0.65;0.20;;;;;;;23.33;31.28;97715.22;5028425;28;20026;-63
2022/06/09 10:36:47;;;;;;;0.50;0.17;;;;;;;23.23;28.58;97713.25;5012324;28;20068;-63
2022/06/09 10:39:37;;;;;;;0.90;0.30;;;;;;;23.34;31.45;97706.22;5016055;28;20028;-61
2022/06/09 10:42:17;;;;;;;2.40;0.40;;;;;;;23.33;30.53;97701.97;5032087;28;20609;-62
2022/06/09 10:44:47;;;;;;;0.60;0.22;;;;;;;23.43;29.12;97714.53;5022205;28;20404;-61
2022/06/09 10:56:59;;;;;;;2.40;0.40;;;;;;;23.54;26.42;97702.97;5017169;28;20047;-64
2022/06/09 10:59:39;;;;;;;1.15;0.32;;;;;;;23.47;30.27;97665.22;5016881;28;20032;-62
2022/06/09 11:02:14;;;;;;;0.68;0.20;;;;;;;23.57;27.67;97686.56;5017197;28;20076;-63
2022/06/09 11:04:40;;;;;;;0.60;0.13;;;;;;;23.39;28.37;97693.00;5008035;28;20029;-61
2022/06/09 11:07:30;;;;;;;1.25;0.30;;;;;;;23.57;27.62;97689.19;5014919;28;20726;-61
2022/06/09 11:10:14;;;;;;;1.63;0.28;;;;;;;23.54;30.33;97702.97;5028210;28;20334;-61
2022/06/09 11:12:45;;;;;;;1.05;0.22;;;;;;;23.36;26.74;97661.66;5018530;28;20025;-59
2022/06/09 11:15:16;;;;;;;0.75;0.25;;;;;;;23.29;26.84;97652.31;5012749;28;20048;-59
2022/06/09 11:18:08;;;;;;;1.30;0.38;;;;;;;23.36;27.49;97648.41;5013385;28;20547;-59
2022/06/09 11:20:52;;;;;;;0.52;0.20;;;;;;;23.65;27.40;97695.91;5020742;28;20068;-59
2022/06/09 11:23:52;;;;;;;1.65;0.30;;;;;;;23.67;29.06;97695.66;5020426;28;20395;-58
2022/06/09 11:26:42;;;;;;;0.52;0.10;;;;;;;23.63;27.46;97692.69;5011922;28;20091;-58
2022/06/09 11:29:46;;;;;;;1.33;0.38;;;;;;;23.66;30.26;97678.94;5020323;28;20739;-59
2022/06/09 11:32:20;;;;;;;1.45;0.30;;;;;;;23.64;27.24;97670.44;5020733;28;20107;-58
2022/06/09 11:35:00;;;;;;;1.80;0.40;;;;;;;23.74;27.69;97673.16;5014717;28;20030;-60
2022/06/09 11:37:31;;;;;;;1.67;0.30;;;;;;;23.67;24.71;97669.13;5021741;28;20037;-62
2022/06/09 11:40:06;;;;;;;1.27;0.30;;;;;;;23.91;27.18;97667.78;5018350;28;20022;-58
2022/06/09 11:42:40;;;;;;;1.77;0.30;;;;;;;23.79;26.07;97672.41;5017988;28;20095;-58
2022/06/09 11:45:20;;;;;;;1.20;0.20;;;;;;;23.79;25.04;97656.50;5014829;28;20057;-59
2022/06/09 11:47:46;;;;;;;1.35;0.40;;;;;;;23.80;28.23;97682.00;5013808;28;20029;-62
2022/06/09 11:50:16;;;;;;;0.98;0.30;;;;;;;23.84;26.58;97683.09;5021070;28;20666;-59
2022/06/09 11:52:45;;;;;;;1.65;0.40;;;;;;;23.84;25.76;97667.19;5019263;28;20105;-58
2022/06/09 11:55:57;;;;;;;0.70;0.22;;;;;;;23.93;26.28;97676.28;4993328;28;20037;-59
2022/06/09 11:58:33;;;;;;;1.63;0.30;;;;;;;23.91;23.97;97673.06;5019402;28;21696;-59
2022/06/09 12:01:34;;;;;;;1.90;0.30;;;;;;;23.86;26.26;97672.22;5022565;28;20113;-60
2022/06/09 12:04:21;;;;;;;0.73;0.30;;;;;;;23.90;27.31;97666.16;5019353;28;20080;-61
2022/06/09 12:06:52;;;;;;;1.42;0.30;;;;;;;23.92;26.00;97674.66;5016494;28;20038;-60
2022/06/09 12:09:34;;;;;;;1.67;0.35;;;;;;;24.03;25.88;97653.50;5022191;28;20494;-59
2022/06/09 12:12:04;;;;;;;1.80;0.43;;;;;;;24.21;24.75;97650.44;5022461;28;20035;-61
2022/06/09 12:14:32;;;;;;;1.60;0.40;;;;;;;24.17;25.23;97628.13;5019471;28;20064;-60
2022/06/09 12:17:30;;;;;;;0.70;0.20;;;;;;;24.26;27.37;97657.63;5020217;28;20100;-59
2022/06/09 12:20:04;;;;;;;2.25;0.38;;;;;;;24.23;27.61;97658.16;5021086;28;20041;-62